createdAt,value
2019-05-23T00:00:25.135Z,16.00
2019-05-23T00:01:25.145Z,15.70
2019-05-23T00:02:25.171Z,14.80
2019-05-23T00:03:25.129Z,15.70
2019-05-23T00:04:25.127Z,16.90
2019-05-23T00:05:25.083Z,16.60
2019-05-23T00:06:25.079Z,16.10
2019-05-23T00:07:25.054Z,15.90
2019-05-23T00:08:25.044Z,16.40
2019-05-23T00:09:25.073Z,16.30
2019-05-23T00:10:25.041Z,17.60
2019-05-23T00:11:25.008Z,16.50
2019-05-23T00:12:25.003Z,17.20
2019-05-23T00:13:24.988Z,16.40
2019-05-23T00:14:24.978Z,18.10
2019-05-23T00:15:25.034Z,17.80
2019-05-23T00:16:24.949Z,16.40
2019-05-23T00:17:24.939Z,16.70
2019-05-23T00:18:24.929Z,17.00
2019-05-23T00:19:24.931Z,17.60
2019-05-23T00:20:24.917Z,16.60
2019-05-23T00:21:24.937Z,18.50
2019-05-23T00:22:24.928Z,17.20
2019-05-23T00:23:24.870Z,17.80
2019-05-23T00:24:24.861Z,18.00
2019-05-23T00:25:24.871Z,17.50
2019-05-23T00:26:24.885Z,17.10
2019-05-23T00:27:24.864Z,17.90
2019-05-23T00:28:24.820Z,17.40
2019-05-23T00:29:24.809Z,16.80
2019-05-23T00:30:24.823Z,17.60
2019-05-23T00:31:24.795Z,16.70
2019-05-23T00:32:24.815Z,17.10
2019-05-23T00:33:24.758Z,17.70
2019-05-23T00:34:24.748Z,18.00
2019-05-23T00:35:24.734Z,17.50
2019-05-23T00:36:24.826Z,17.80
2019-05-23T00:37:24.789Z,18.00
2019-05-23T00:38:24.713Z,18.30
2019-05-23T00:39:24.707Z,18.50
2019-05-23T00:40:24.684Z,18.40
2019-05-23T00:41:24.668Z,18.60
2019-05-23T00:42:24.661Z,17.40
2019-05-23T00:43:24.722Z,18.00
2019-05-23T00:44:24.662Z,17.40
2019-05-23T00:45:24.626Z,18.00
2019-05-23T00:46:24.625Z,18.60
2019-05-23T00:47:24.688Z,19.10
2019-05-23T00:48:24.600Z,18.30
2019-05-23T00:49:24.607Z,17.20
2019-05-23T00:50:24.566Z,19.00
2019-05-23T00:51:24.573Z,18.30
2019-05-23T00:52:24.602Z,19.40
2019-05-23T00:53:24.537Z,19.10
2019-05-23T00:54:24.561Z,19.00
2019-05-23T00:55:24.537Z,19.40
2019-05-23T00:56:24.544Z,20.20
2019-05-23T00:57:24.495Z,19.40
2019-05-23T00:58:24.494Z,18.80
2019-05-23T00:59:27.502Z,19.40
2019-05-23T01:00:24.494Z,19.50
2019-05-23T01:01:24.461Z,19.80
2019-05-23T01:02:24.432Z,20.50
2019-05-23T01:03:24.469Z,20.30
2019-05-23T01:04:24.425Z,20.30
2019-05-23T01:05:24.450Z,19.80
2019-05-23T01:06:24.421Z,19.90
2019-05-23T01:07:24.372Z,19.90
2019-05-23T01:08:24.366Z,20.30
2019-05-23T01:09:24.350Z,20.10
2019-05-23T01:10:24.338Z,18.90
2019-05-23T01:11:24.378Z,20.50
2019-05-23T01:12:24.366Z,20.30
2019-05-23T01:13:24.333Z,20.40
2019-05-23T01:14:24.291Z,20.10
2019-05-23T01:15:24.281Z,20.40
2019-05-23T01:16:24.278Z,20.80
2019-05-23T01:17:24.300Z,20.10
2019-05-23T01:18:24.259Z,21.10
2019-05-23T01:19:24.234Z,20.00
2019-05-23T01:20:24.247Z,21.00
2019-05-23T01:21:24.222Z,20.90
2019-05-23T01:22:24.219Z,20.90
2019-05-23T01:23:24.237Z,21.70
2019-05-23T01:24:24.204Z,20.80
2019-05-23T01:25:24.169Z,20.00
2019-05-23T01:26:24.245Z,21.10
2019-05-23T01:27:24.148Z,20.80
2019-05-23T01:28:24.140Z,20.00
2019-05-23T01:29:24.163Z,21.10
2019-05-23T01:30:24.131Z,19.40
2019-05-23T01:31:24.101Z,19.80
2019-05-23T01:32:24.133Z,20.90
2019-05-23T01:33:24.164Z,19.00
2019-05-23T01:34:24.066Z,18.20
2019-05-23T01:35:24.097Z,19.80
2019-05-23T01:36:24.040Z,20.50
2019-05-23T01:37:24.077Z,20.50
2019-05-23T01:38:24.020Z,20.30
2019-05-23T01:39:24.011Z,20.60
2019-05-23T01:40:24.004Z,21.00
2019-05-23T01:41:24.042Z,20.00
2019-05-23T01:42:23.984Z,20.40
2019-05-23T01:43:24.015Z,20.70
2019-05-23T01:44:23.954Z,20.70
2019-05-23T01:45:23.943Z,20.00
2019-05-23T01:46:23.932Z,20.80
2019-05-23T01:47:23.967Z,21.00
2019-05-23T01:48:23.929Z,19.80
2019-05-23T01:49:23.951Z,19.70
2019-05-23T01:50:23.889Z,19.70
2019-05-23T01:51:23.874Z,19.00
2019-05-23T01:52:23.861Z,19.50
2019-05-23T01:53:23.848Z,19.60
2019-05-23T01:54:23.835Z,19.50
2019-05-23T01:55:23.898Z,20.00
2019-05-23T01:56:23.816Z,19.40
2019-05-23T01:57:23.806Z,20.50
2019-05-23T01:58:23.790Z,20.40
2019-05-23T01:59:23.782Z,19.70
2019-05-23T02:00:23.777Z,20.20
2019-05-23T02:01:23.803Z,20.60
2019-05-23T02:02:23.842Z,19.60
2019-05-23T02:03:23.740Z,20.00
2019-05-23T02:04:23.738Z,19.40
2019-05-23T02:05:23.721Z,20.30
2019-05-23T02:06:23.705Z,19.40
2019-05-23T02:07:23.683Z,20.60
2019-05-23T02:08:23.721Z,20.40
2019-05-23T02:09:23.712Z,20.00
2019-05-23T02:10:23.675Z,19.80
2019-05-23T02:11:23.638Z,20.70
2019-05-23T02:12:23.665Z,19.30
2019-05-23T02:13:23.691Z,19.50
2019-05-23T02:14:23.612Z,19.70
2019-05-23T02:15:23.597Z,18.60
2019-05-23T02:16:23.581Z,18.80
2019-05-23T02:17:23.576Z,18.90
2019-05-23T02:18:23.558Z,18.60
2019-05-23T02:19:23.657Z,18.20
2019-05-23T02:20:23.536Z,18.40
2019-05-23T02:21:23.535Z,19.30
2019-05-23T02:22:23.574Z,19.60
2019-05-23T02:23:23.502Z,18.80
2019-05-23T02:24:23.528Z,19.40
2019-05-23T02:25:23.481Z,20.40
2019-05-23T02:26:23.522Z,19.50
2019-05-23T02:27:23.494Z,19.70
2019-05-23T02:28:23.446Z,19.40
2019-05-23T02:29:23.444Z,20.00
2019-05-23T02:30:34.100Z,19.70
2019-05-23T02:31:24.420Z,20.90
2019-05-23T02:32:23.417Z,19.80
2019-05-23T02:33:23.448Z,20.30
2019-05-23T02:34:23.382Z,20.50
2019-05-23T02:35:23.428Z,19.40
2019-05-23T02:36:23.408Z,20.40
2019-05-23T02:37:23.401Z,20.50
2019-05-23T02:38:23.336Z,19.90
2019-05-23T02:39:23.329Z,19.40
2019-05-23T02:40:23.311Z,19.90
2019-05-23T02:41:23.303Z,20.40
2019-05-23T02:42:23.307Z,18.60
2019-05-23T02:43:23.363Z,19.20
2019-05-23T02:44:23.275Z,20.90
2019-05-23T02:45:23.258Z,21.20
2019-05-23T02:46:23.241Z,21.50
2019-05-23T02:47:23.232Z,21.30
2019-05-23T02:48:23.266Z,20.90
2019-05-23T02:49:23.231Z,21.90
2019-05-23T02:50:23.209Z,21.50
2019-05-23T02:51:23.185Z,20.80
2019-05-23T02:52:23.195Z,20.80
2019-05-23T02:53:23.218Z,20.90
2019-05-23T02:54:23.149Z,20.00
2019-05-23T02:55:23.155Z,20.50
2019-05-23T02:56:23.155Z,21.70
2019-05-23T02:57:23.120Z,21.80
2019-05-23T02:58:23.108Z,21.20
2019-05-23T02:59:23.170Z,22.70
2019-05-23T03:00:23.093Z,22.30
2019-05-23T03:01:23.079Z,22.70
2019-05-23T03:02:23.076Z,23.10
2019-05-23T03:03:23.051Z,22.40
2019-05-23T03:04:23.115Z,21.40
2019-05-23T03:05:23.080Z,21.20
2019-05-23T03:06:23.016Z,22.30
2019-05-23T03:07:23.017Z,23.30
2019-05-23T03:08:22.993Z,23.60
2019-05-23T03:09:23.031Z,24.00
2019-05-23T03:10:22.971Z,23.90
2019-05-23T03:11:22.990Z,24.40
2019-05-23T03:12:25.226Z,23.90
2019-05-23T03:13:22.938Z,23.60
2019-05-23T03:14:22.929Z,24.40
2019-05-23T03:15:22.968Z,23.20
2019-05-23T03:16:22.905Z,23.50
2019-05-23T03:17:23.008Z,23.00
2019-05-23T03:18:22.908Z,24.00
2019-05-23T03:19:22.959Z,23.90
2019-05-23T03:20:22.861Z,24.00
2019-05-23T03:21:22.885Z,24.50
2019-05-23T03:22:22.839Z,24.30
2019-05-23T03:23:22.863Z,24.50
2019-05-23T03:24:22.808Z,25.50
2019-05-23T03:25:22.861Z,23.80
2019-05-23T03:26:22.787Z,24.70
2019-05-23T03:27:22.799Z,25.50
2019-05-23T03:28:22.810Z,24.00
2019-05-23T03:29:22.781Z,25.30
2019-05-23T03:30:22.746Z,26.10
2019-05-23T03:31:29.726Z,24.60
2019-05-23T03:32:23.788Z,25.10
2019-05-23T03:33:22.778Z,24.60
2019-05-23T03:34:22.862Z,26.80
2019-05-23T03:35:22.713Z,24.90
2019-05-23T03:36:22.692Z,24.60
2019-05-23T03:37:22.673Z,25.30
2019-05-23T03:38:22.670Z,23.80
2019-05-23T03:39:22.689Z,26.40
2019-05-23T03:40:22.633Z,25.40
2019-05-23T03:41:22.644Z,24.40
2019-05-23T03:42:22.613Z,26.50
2019-05-23T03:43:22.601Z,26.10
2019-05-23T03:44:22.601Z,24.90
2019-05-23T03:45:22.629Z,24.70
2019-05-23T03:46:22.611Z,24.50
2019-05-23T03:47:22.567Z,25.70
2019-05-23T03:48:22.545Z,24.80
2019-05-23T03:49:22.540Z,24.90
2019-05-23T03:50:22.592Z,25.60
2019-05-23T03:51:22.524Z,24.30
2019-05-23T03:52:22.580Z,24.50
2019-05-23T03:53:22.529Z,23.80
2019-05-23T03:54:22.481Z,24.20
2019-05-23T03:55:22.505Z,24.10
2019-05-23T03:56:22.492Z,24.70
2019-05-23T03:57:25.615Z,25.30
2019-05-23T03:58:22.489Z,23.30
2019-05-23T03:59:22.442Z,25.30
2019-05-23T04:00:22.415Z,26.50
2019-05-23T04:01:22.417Z,25.90
2019-05-23T04:02:22.395Z,26.10
2019-05-23T04:03:22.380Z,26.00
2019-05-23T04:04:22.422Z,25.00
2019-05-23T04:05:22.381Z,24.80
2019-05-23T04:06:22.341Z,25.90
2019-05-23T04:07:22.341Z,23.60
2019-05-23T04:08:22.316Z,25.70
2019-05-23T04:09:22.354Z,25.60
2019-05-23T04:10:22.343Z,25.70
2019-05-23T04:11:22.299Z,25.80
2019-05-23T04:12:22.312Z,24.50
2019-05-23T04:13:22.264Z,27.20
2019-05-23T04:14:22.245Z,26.20
2019-05-23T04:15:22.234Z,28.10
2019-05-23T04:16:22.266Z,27.50
2019-05-23T04:17:22.265Z,27.40
2019-05-23T04:18:22.252Z,25.10
2019-05-23T04:19:22.191Z,27.30
2019-05-23T04:20:22.234Z,28.10
2019-05-23T04:21:22.185Z,27.10
2019-05-23T04:22:22.157Z,27.20
2019-05-23T04:23:22.157Z,24.90
2019-05-23T04:24:22.193Z,27.10
2019-05-23T04:25:22.163Z,26.70
2019-05-23T04:26:22.135Z,27.30
2019-05-23T04:27:22.098Z,27.10
2019-05-23T04:28:22.086Z,27.70
2019-05-23T04:29:22.076Z,27.70
2019-05-23T04:30:22.075Z,26.50
2019-05-23T04:31:22.100Z,26.80
2019-05-23T04:32:22.039Z,27.70
2019-05-23T04:33:22.072Z,28.30
2019-05-23T04:34:22.017Z,27.70
2019-05-23T04:35:22.024Z,27.20
2019-05-23T04:36:22.019Z,27.20
2019-05-23T04:37:21.994Z,26.70
2019-05-23T04:38:21.980Z,27.50
2019-05-23T04:39:22.017Z,27.70
2019-05-23T04:40:21.961Z,27.20
2019-05-23T04:41:21.958Z,26.40
2019-05-23T04:42:21.980Z,26.00
2019-05-23T04:43:21.923Z,26.10
2019-05-23T04:44:21.909Z,26.80
2019-05-23T04:45:21.896Z,26.70
2019-05-23T04:46:21.936Z,24.20
2019-05-23T04:47:21.893Z,24.00
2019-05-23T04:48:21.875Z,25.00
2019-05-23T04:49:21.859Z,23.50
2019-05-23T04:50:21.866Z,24.20
2019-05-23T04:51:21.835Z,24.80
2019-05-23T04:52:21.870Z,24.70
2019-05-23T04:53:21.856Z,24.00
2019-05-23T04:54:21.800Z,25.00
2019-05-23T04:55:21.789Z,22.20
2019-05-23T04:56:21.894Z,24.90
2019-05-23T04:57:21.809Z,24.00
2019-05-23T04:58:21.748Z,24.50
2019-05-23T04:59:21.823Z,23.00
2019-05-23T05:00:21.742Z,23.00
2019-05-23T05:01:21.766Z,23.60
2019-05-23T05:02:26.138Z,24.80
2019-05-23T05:03:21.748Z,22.10
2019-05-23T05:04:21.687Z,22.80
2019-05-23T05:05:21.669Z,22.50
2019-05-23T05:06:21.675Z,23.40
2019-05-23T05:07:21.660Z,24.50
2019-05-23T05:08:21.649Z,24.90
2019-05-23T05:09:21.678Z,23.10
2019-05-23T05:10:21.814Z,22.40
2019-05-23T05:11:21.619Z,23.10
2019-05-23T05:12:21.629Z,22.40
2019-05-23T05:13:21.582Z,22.70
2019-05-23T05:14:21.575Z,23.30
2019-05-23T05:15:21.588Z,22.80
2019-05-23T05:16:21.632Z,22.30
2019-05-23T05:17:21.563Z,21.80
2019-05-23T05:18:21.584Z,23.50
2019-05-23T05:19:21.625Z,23.00
2019-05-23T05:20:21.499Z,23.90
2019-05-23T05:21:21.501Z,23.90
2019-05-23T05:22:21.495Z,21.90
2019-05-23T05:23:21.473Z,23.10
2019-05-23T05:24:21.514Z,23.20
2019-05-23T05:25:21.490Z,23.90
2019-05-23T05:26:21.456Z,24.00
2019-05-23T05:27:21.453Z,23.50
2019-05-23T05:28:21.445Z,25.00
2019-05-23T05:29:21.404Z,23.70
2019-05-23T05:30:21.402Z,24.60
2019-05-23T05:31:21.485Z,23.20
2019-05-23T05:32:22.285Z,24.60
2019-05-23T05:33:21.408Z,24.50
2019-05-23T05:34:21.350Z,24.20
2019-05-23T05:35:21.335Z,23.10
2019-05-23T05:36:21.318Z,23.30
2019-05-23T05:37:21.305Z,23.90
2019-05-23T05:38:21.360Z,24.70
2019-05-23T05:39:21.309Z,23.90
2019-05-23T05:40:21.320Z,23.10
2019-05-23T05:41:21.261Z,23.90
2019-05-23T05:42:21.365Z,23.40
2019-05-23T05:43:21.241Z,23.80
2019-05-23T05:44:21.450Z,24.60
2019-05-23T05:45:21.480Z,22.90
2019-05-23T05:46:21.205Z,24.60
2019-05-23T05:47:21.214Z,23.40
2019-05-23T05:48:21.177Z,23.10
2019-05-23T05:49:21.202Z,24.60
2019-05-23T05:50:21.204Z,24.00
2019-05-23T05:51:21.383Z,24.00
2019-05-23T05:52:21.143Z,23.60
2019-05-23T05:53:21.212Z,23.50
2019-05-23T05:54:21.129Z,23.90
2019-05-23T05:55:21.118Z,22.80
2019-05-23T05:56:21.179Z,22.00
2019-05-23T05:57:21.151Z,22.70
2019-05-23T05:58:21.212Z,22.30
2019-05-23T05:59:21.082Z,22.50
2019-05-23T06:00:21.082Z,22.30
2019-05-23T06:01:33.497Z,22.90
2019-05-23T06:02:22.085Z,22.60
2019-05-23T06:03:21.367Z,23.40
2019-05-23T06:04:21.061Z,23.20
2019-05-23T06:05:21.050Z,21.90
2019-05-23T06:06:21.072Z,22.20
2019-05-23T06:07:20.963Z,21.10
2019-05-23T06:08:20.949Z,20.50
2019-05-23T06:09:21.010Z,21.30
2019-05-23T06:10:21.028Z,20.70
2019-05-23T06:11:20.945Z,22.30
2019-05-23T06:12:20.909Z,21.60
2019-05-23T06:13:20.906Z,21.70
2019-05-23T06:14:20.901Z,21.20
2019-05-23T06:15:20.916Z,21.50
2019-05-23T06:16:20.918Z,21.70
2019-05-23T06:17:20.860Z,21.10
2019-05-23T06:18:20.849Z,22.10
2019-05-23T06:19:20.830Z,22.60
2019-05-23T06:20:20.844Z,19.50
2019-05-23T06:21:20.814Z,20.90
2019-05-23T06:22:20.908Z,21.30
2019-05-23T06:23:20.810Z,22.00
2019-05-23T06:24:39.350Z,20.70
2019-05-23T06:25:21.837Z,20.50
2019-05-23T06:26:20.750Z,20.30
2019-05-23T06:27:20.750Z,19.20
2019-05-23T06:28:20.745Z,20.20
2019-05-23T06:29:20.770Z,19.70
2019-05-23T06:30:20.715Z,19.50
2019-05-23T06:31:20.951Z,18.80
2019-05-23T06:32:20.774Z,19.60
2019-05-23T06:33:23.856Z,20.90
2019-05-23T06:34:20.660Z,20.20
2019-05-23T06:35:20.706Z,19.60
2019-05-23T06:36:20.640Z,18.80
2019-05-23T06:37:20.636Z,19.30
2019-05-23T06:38:20.624Z,19.70
2019-05-23T06:39:20.708Z,19.50
2019-05-23T06:40:20.670Z,19.40
2019-05-23T06:41:20.576Z,20.00
2019-05-23T06:42:20.602Z,20.40
2019-05-23T06:43:20.737Z,20.10
2019-05-23T06:44:20.540Z,19.50
2019-05-23T06:45:20.587Z,19.10
2019-05-23T06:46:20.542Z,18.90
2019-05-23T06:47:20.639Z,19.50
2019-05-23T06:48:20.548Z,20.10
2019-05-23T06:49:20.489Z,19.90
2019-05-23T06:50:20.504Z,18.90
2019-05-23T06:51:20.481Z,18.20
2019-05-23T06:52:20.677Z,18.50
2019-05-23T06:53:20.557Z,18.40
2019-05-23T06:54:20.559Z,19.10
2019-05-23T06:55:20.421Z,18.90
2019-05-23T06:56:20.401Z,18.30
2019-05-23T06:57:20.410Z,19.10
2019-05-23T06:58:20.832Z,18.60
2019-05-23T06:59:20.450Z,17.80
2019-05-23T07:00:20.393Z,18.30
2019-05-23T07:01:20.374Z,17.90
2019-05-23T07:02:20.405Z,18.20
2019-05-23T07:03:20.410Z,17.20
2019-05-23T07:04:20.755Z,18.40
2019-05-23T07:05:20.391Z,16.30
2019-05-23T07:06:20.336Z,16.30
2019-05-23T07:07:20.287Z,15.60
2019-05-23T07:08:20.750Z,16.60
2019-05-23T07:09:20.321Z,16.60
2019-05-23T07:10:20.252Z,17.60
2019-05-23T07:11:20.237Z,17.30
2019-05-23T07:12:20.278Z,17.40
2019-05-23T07:13:20.231Z,16.20
2019-05-23T07:14:20.256Z,16.20
2019-05-23T07:15:20.275Z,16.10
2019-05-23T07:16:20.231Z,16.50
2019-05-23T07:17:20.207Z,17.10
2019-05-23T07:18:20.204Z,16.00
2019-05-23T07:19:20.149Z,16.00
2019-05-23T07:20:20.340Z,16.50
2019-05-23T07:21:20.193Z,16.40
2019-05-23T07:22:20.167Z,16.60
2019-05-23T07:23:20.211Z,16.80
2019-05-23T07:24:20.095Z,15.90
2019-05-23T07:25:20.092Z,15.20
2019-05-23T07:26:20.076Z,15.10
2019-05-23T07:27:20.375Z,15.90
2019-05-23T07:28:20.119Z,16.50
2019-05-23T07:29:20.087Z,15.50
2019-05-23T07:30:20.062Z,16.10
2019-05-23T07:31:20.018Z,15.20
2019-05-23T07:32:20.014Z,15.70
2019-05-23T07:33:20.004Z,15.60
2019-05-23T07:34:20.281Z,15.10
2019-05-23T07:35:20.018Z,15.00
2019-05-23T07:36:20.002Z,15.50
2019-05-23T07:37:20.032Z,13.30
2019-05-23T07:38:19.942Z,14.70
2019-05-23T07:39:20.665Z,15.40
2019-05-23T07:40:19.930Z,14.40
2019-05-23T07:41:19.952Z,13.60
2019-05-23T07:42:19.909Z,14.90
2019-05-23T07:43:19.940Z,14.40
2019-05-23T07:44:19.929Z,15.00
2019-05-23T07:45:19.857Z,13.70
2019-05-23T07:46:19.944Z,13.20
2019-05-23T07:47:19.837Z,14.00
2019-05-23T07:48:19.884Z,14.00
2019-05-23T07:49:19.935Z,14.40
2019-05-23T07:50:19.943Z,14.30
2019-05-23T07:51:19.792Z,14.10
2019-05-23T07:52:20.392Z,14.60
2019-05-23T07:53:20.151Z,13.20
2019-05-23T07:54:20.078Z,13.30
2019-05-23T07:55:19.883Z,12.80
2019-05-23T07:56:19.871Z,13.50
2019-05-23T07:57:19.742Z,13.90
2019-05-23T07:58:19.738Z,13.30
2019-05-23T07:59:19.721Z,12.50
2019-05-23T08:00:19.752Z,13.00
2019-05-23T08:01:19.960Z,13.50
2019-05-23T08:02:19.730Z,12.70
2019-05-23T08:03:19.685Z,12.00
2019-05-23T08:04:22.216Z,12.20
2019-05-23T08:05:19.669Z,12.30
2019-05-23T08:06:19.635Z,12.30
2019-05-23T08:07:19.618Z,13.10
2019-05-23T08:08:19.730Z,11.90
2019-05-23T08:09:21.740Z,12.20
2019-05-23T08:10:33.094Z,11.50
2019-05-23T08:11:20.602Z,12.20
2019-05-23T08:12:21.054Z,11.90
2019-05-23T08:13:21.011Z,12.10
2019-05-23T08:14:20.336Z,11.30
2019-05-23T08:15:21.888Z,11.60
2019-05-23T08:16:21.362Z,11.00
2019-05-23T08:17:19.690Z,11.30
2019-05-23T08:18:19.507Z,10.60
2019-05-23T08:19:19.953Z,10.30
2019-05-23T08:20:19.676Z,11.40
2019-05-23T08:21:19.684Z,10.50
2019-05-23T08:22:19.486Z,10.70
2019-05-23T08:23:20.547Z,10.00
2019-05-23T08:24:19.540Z,10.00
2019-05-23T08:25:19.529Z,9.40
2019-05-23T08:26:19.490Z,9.70
2019-05-23T08:27:19.384Z,8.80
2019-05-23T08:28:19.408Z,8.80
2019-05-23T08:29:26.052Z,9.00
2019-05-23T08:30:20.426Z,9.20
2019-05-23T08:31:19.408Z,9.10
2019-05-23T08:32:19.347Z,8.70
2019-05-23T08:33:19.589Z,9.80
2019-05-23T08:34:19.363Z,9.30
2019-05-23T08:35:19.299Z,8.80
2019-05-23T08:36:19.308Z,9.70
2019-05-23T08:37:19.375Z,9.40
2019-05-23T08:38:19.423Z,8.80
2019-05-23T08:39:19.256Z,9.40
2019-05-23T08:40:19.241Z,10.00
2019-05-23T08:41:19.292Z,9.10
2019-05-23T08:42:19.332Z,8.70
2019-05-23T08:43:19.334Z,8.70
2019-05-23T08:44:19.263Z,9.00
2019-05-23T08:45:19.198Z,9.30
2019-05-23T08:46:20.257Z,9.30
2019-05-23T08:47:19.186Z,9.10
2019-05-23T08:51:02.803Z,9.70
2019-05-23T08:52:02.855Z,9.10
2019-05-23T08:53:02.629Z,8.10
2019-05-23T08:54:02.618Z,8.50
2019-05-23T08:55:02.556Z,8.40
2019-05-23T08:56:02.588Z,8.80
2019-05-23T08:57:02.587Z,7.60
2019-05-23T08:58:02.573Z,8.60
2019-05-23T08:59:02.555Z,8.00
2019-05-23T09:00:02.506Z,7.80
2019-05-23T09:01:02.519Z,8.30
2019-05-23T09:02:02.486Z,8.30
2019-05-23T09:03:02.471Z,7.30
2019-05-23T09:04:02.504Z,7.80
2019-05-23T09:05:05.974Z,7.40
2019-05-23T09:06:02.440Z,9.70
2019-05-23T09:07:02.595Z,9.10
2019-05-23T09:08:02.417Z,8.90
2019-05-23T09:09:02.417Z,9.60
2019-05-23T09:10:02.393Z,9.50
2019-05-23T09:11:02.459Z,9.30
2019-05-23T09:12:02.390Z,9.20
2019-05-23T09:13:02.537Z,9.30
2019-05-23T09:14:02.388Z,8.50
2019-05-23T09:15:02.334Z,8.00
2019-05-23T09:16:02.322Z,8.40
2019-05-23T09:17:02.405Z,8.50
2019-05-23T09:18:02.412Z,7.50
2019-05-23T09:19:02.299Z,7.40
2019-05-23T09:20:02.351Z,7.10
2019-05-23T09:21:02.383Z,7.70
2019-05-23T09:22:02.288Z,8.60
2019-05-23T09:23:03.643Z,7.60
2019-05-23T09:24:02.507Z,7.60
2019-05-23T09:25:02.271Z,8.20
2019-05-23T09:26:02.427Z,7.10
2019-05-23T09:27:02.285Z,7.40
2019-05-23T09:28:02.468Z,8.40
2019-05-23T09:29:02.204Z,9.50
2019-05-23T09:30:02.179Z,8.00
2019-05-23T09:31:02.371Z,8.10
2019-05-23T09:32:02.215Z,8.10
2019-05-23T09:33:02.165Z,8.50
2019-05-23T09:34:02.215Z,9.40
2019-05-23T09:35:19.185Z,8.90
2019-05-23T09:36:03.121Z,8.70
2019-05-23T09:37:02.146Z,8.90
2019-05-23T09:38:02.272Z,8.50
2019-05-23T09:39:02.356Z,7.50
2019-05-23T09:40:02.089Z,8.20
2019-05-23T09:41:02.109Z,7.20
2019-05-23T09:42:02.059Z,7.10
2019-05-23T09:43:02.072Z,7.90
2019-05-23T09:44:02.096Z,8.00
2019-05-23T09:45:02.093Z,8.10
2019-05-23T09:46:02.052Z,8.20
2019-05-23T09:47:02.078Z,7.30
2019-05-23T09:48:02.037Z,6.60
2019-05-23T09:49:01.970Z,6.60
2019-05-23T09:50:02.014Z,6.20
2019-05-23T09:51:02.085Z,5.70
2019-05-23T09:52:01.974Z,6.10
2019-05-23T09:53:01.933Z,4.90
2019-05-23T09:54:01.954Z,6.30
2019-05-23T09:55:03.234Z,6.00
2019-05-23T09:56:02.211Z,4.90
2019-05-23T09:57:01.895Z,5.20
2019-05-23T09:58:02.600Z,5.10
2019-05-23T09:59:01.855Z,5.80
2019-05-23T10:00:01.970Z,5.40
2019-05-23T10:01:02.133Z,5.10
2019-05-23T10:02:01.975Z,5.60
2019-05-23T10:03:01.815Z,5.50
2019-05-23T10:04:01.865Z,5.00
2019-05-23T10:05:01.808Z,4.80
2019-05-23T10:06:03.066Z,5.40
2019-05-23T10:07:01.882Z,6.00
2019-05-23T10:08:01.842Z,5.20
2019-05-23T10:09:01.829Z,5.20
2019-05-23T10:10:02.071Z,5.00
2019-05-23T10:11:01.918Z,5.10
2019-05-23T10:12:01.710Z,4.80
2019-05-23T10:13:01.951Z,5.20
2019-05-23T10:14:01.878Z,4.80
2019-05-23T10:15:01.745Z,5.50
2019-05-23T10:16:01.743Z,5.50
2019-05-23T10:17:02.021Z,4.90
2019-05-23T10:18:01.668Z,5.20
2019-05-23T10:19:01.665Z,5.10
2019-05-23T10:20:01.764Z,5.60
2019-05-23T10:21:01.633Z,4.80
2019-05-23T10:22:02.045Z,5.00
2019-05-23T10:23:01.618Z,4.70
2019-05-23T10:24:01.616Z,4.60
2019-05-23T10:25:01.569Z,5.20
2019-05-23T10:26:01.639Z,4.90
2019-05-23T10:27:01.750Z,5.00
2019-05-23T10:28:01.648Z,4.70
2019-05-23T10:29:01.775Z,4.80
2019-05-23T10:30:02.167Z,4.50
2019-05-23T10:31:01.573Z,4.40
2019-05-23T10:32:01.508Z,3.90
2019-05-23T10:33:01.533Z,4.00
2019-05-23T10:34:01.480Z,4.20
2019-05-23T10:35:01.605Z,4.40
2019-05-23T10:36:01.520Z,4.60
2019-05-23T10:37:01.446Z,4.60
2019-05-23T10:38:01.569Z,5.20
2019-05-23T10:39:01.558Z,4.70
2019-05-23T10:40:01.462Z,4.70
2019-05-23T10:41:01.507Z,4.20
2019-05-23T10:42:01.445Z,5.00
2019-05-23T10:43:01.395Z,4.80
2019-05-23T10:44:01.596Z,5.00
2019-05-23T10:45:01.716Z,4.60
2019-05-23T10:46:01.451Z,5.50
2019-05-23T10:47:01.403Z,4.80
2019-05-23T10:48:01.327Z,4.60
2019-05-23T10:49:01.323Z,4.60
2019-05-23T10:50:07.610Z,4.80
2019-05-23T10:51:02.365Z,4.40
2019-05-23T10:52:01.388Z,5.00
2019-05-23T10:53:01.277Z,4.80
2019-05-23T10:54:01.319Z,4.80
2019-05-23T10:55:01.239Z,4.50
2019-05-23T10:56:01.271Z,4.50
2019-05-23T10:57:01.241Z,4.90
2019-05-23T10:58:01.288Z,4.40
2019-05-23T10:59:01.250Z,4.60
2019-05-23T11:00:01.204Z,4.10
2019-05-23T11:01:01.179Z,4.20
2019-05-23T11:02:01.252Z,4.60
2019-05-23T11:03:01.303Z,4.00
2019-05-23T11:04:01.165Z,3.70
2019-05-23T11:05:12.041Z,4.50
2019-05-23T11:07:12.123Z,3.50
2019-05-23T11:08:12.062Z,4.00
2019-05-23T11:09:12.058Z,4.30
2019-05-23T11:10:12.051Z,4.90
2019-05-23T11:11:14.400Z,4.80
2019-05-23T11:12:12.050Z,4.10
2019-05-23T11:13:12.023Z,4.30
2019-05-23T11:14:12.067Z,4.50
2019-05-23T11:15:12.802Z,4.50
2019-05-23T11:16:12.025Z,3.80
2019-05-23T11:17:12.041Z,4.20
2019-05-23T11:18:11.976Z,4.60
2019-05-23T11:19:11.930Z,4.50
2019-05-23T11:20:11.980Z,4.40
2019-05-23T11:21:11.903Z,4.20
2019-05-23T11:22:12.143Z,4.50
2019-05-23T11:23:11.970Z,4.20
2019-05-23T11:24:11.913Z,4.20
2019-05-23T11:25:11.874Z,4.00
2019-05-23T11:26:11.908Z,3.80
2019-05-23T11:27:11.931Z,3.60
2019-05-23T11:28:11.882Z,3.40
2019-05-23T11:29:11.837Z,3.70
2019-05-23T11:30:11.846Z,4.00
2019-05-23T11:31:11.809Z,3.40
2019-05-23T11:32:11.830Z,3.80
2019-05-23T11:33:11.804Z,3.30
2019-05-23T11:34:11.927Z,3.60
2019-05-23T11:35:11.759Z,3.30
2019-05-23T11:36:11.752Z,3.70
2019-05-23T11:37:11.783Z,3.40
2019-05-23T11:38:11.948Z,3.50
2019-05-23T11:39:12.902Z,3.30
2019-05-23T11:40:11.722Z,4.10
2019-05-23T11:41:11.970Z,3.80
2019-05-23T11:42:12.168Z,3.50
2019-05-23T11:43:12.300Z,3.50
2019-05-23T11:44:12.095Z,3.70
2019-05-23T11:45:12.023Z,3.50
2019-05-23T11:46:12.036Z,3.50
2019-05-23T11:47:11.667Z,3.40
2019-05-23T11:48:11.723Z,3.30
2019-05-23T11:49:11.991Z,3.60
2019-05-23T11:50:11.747Z,3.10
2019-05-23T11:51:12.065Z,3.00
2019-05-23T11:52:11.591Z,3.30
2019-05-23T11:53:11.660Z,3.10
2019-05-23T11:54:11.588Z,3.30
2019-05-23T11:55:11.618Z,3.60
2019-05-23T11:56:11.572Z,3.40
2019-05-23T11:57:11.547Z,3.60
2019-05-23T11:58:11.631Z,3.00
2019-05-23T11:59:11.539Z,3.00
2019-05-23T12:00:11.476Z,3.00
2019-05-23T12:01:19.916Z,3.00
2019-05-23T12:02:12.510Z,2.80
2019-05-23T12:03:11.460Z,3.00
2019-05-23T12:04:11.454Z,2.80
2019-05-23T12:05:11.505Z,2.90
2019-05-23T12:06:11.492Z,2.80
2019-05-23T12:07:11.526Z,3.00
2019-05-23T12:08:11.502Z,3.00
2019-05-23T12:09:11.626Z,3.00
2019-05-23T12:10:11.401Z,3.00
2019-05-23T12:11:11.378Z,3.30
2019-05-23T12:12:11.409Z,2.90
2019-05-23T12:13:11.351Z,3.00
2019-05-23T12:14:11.398Z,2.80
2019-05-23T12:15:11.354Z,2.70
2019-05-23T12:16:11.353Z,2.90
2019-05-23T12:17:11.289Z,3.00
2019-05-23T12:18:11.279Z,3.50
2019-05-23T12:19:11.369Z,4.00
2019-05-23T12:20:11.565Z,3.00
2019-05-23T12:21:11.266Z,2.70
2019-05-23T12:22:11.268Z,3.20
2019-05-23T12:23:11.388Z,3.40
2019-05-23T12:24:11.211Z,3.40
2019-05-23T12:25:21.764Z,3.00
2019-05-23T12:26:12.213Z,3.00
2019-05-23T12:27:11.175Z,2.90
2019-05-23T12:28:11.253Z,3.00
2019-05-23T12:29:11.158Z,2.90
2019-05-23T12:30:11.160Z,3.60
2019-05-23T12:31:11.192Z,3.70
2019-05-23T12:32:11.158Z,3.20
2019-05-23T12:33:11.164Z,3.00
2019-05-23T12:34:11.794Z,3.00
2019-05-23T12:35:12.155Z,3.20
2019-05-23T12:36:11.107Z,3.50
2019-05-23T12:37:18.583Z,3.20
2019-05-23T12:38:12.098Z,3.40
2019-05-23T12:39:11.067Z,3.20
2019-05-23T12:40:11.074Z,2.90
2019-05-23T12:41:11.037Z,2.70
2019-05-23T12:42:11.131Z,3.50
2019-05-23T12:43:11.082Z,2.90
2019-05-23T12:44:11.038Z,3.00
2019-05-23T12:45:11.034Z,3.30
2019-05-23T12:46:11.049Z,3.30
2019-05-23T12:47:10.967Z,3.00
2019-05-23T12:48:11.007Z,3.30
2019-05-23T12:49:10.935Z,3.00
2019-05-23T12:50:10.933Z,2.80
2019-05-23T12:51:10.925Z,3.10
2019-05-23T12:52:10.910Z,3.00
2019-05-23T12:53:10.944Z,3.30
2019-05-23T12:54:10.900Z,3.50
2019-05-23T12:55:10.881Z,2.90
2019-05-23T12:56:10.994Z,3.30
2019-05-23T12:57:10.865Z,3.10
2019-05-23T12:58:11.089Z,3.20
2019-05-23T12:59:10.862Z,2.80
2019-05-23T13:00:10.823Z,2.90
2019-05-23T13:01:10.845Z,3.20
2019-05-23T13:02:10.792Z,2.70
2019-05-23T13:03:10.859Z,3.00
2019-05-23T13:04:10.819Z,3.10
2019-05-23T13:05:10.783Z,3.00